Airport ID:KCCB
Update Time (UTC):21/07/2018 11:04
Wind Speed (Knots):2
Wind Direction (Magnetic):240
Temperature (°C):19.5
Dew Point (°C):14.4
Humidity (%):72.4
Altimeter (inHg):29.99
Density Altitude (Feet):02500
Visibility (Miles):10
Clouds (Hundreds of feet):CLR
Present Weather:
METAR:METAR KCCB 211100Z AUTO 00000KT 10SM CLR 19/14 A2999 RMK AO2

The data displayed is for advisory purposes only and is not to be used for flight planning or operations.

This page is not automatically refreshed. Reload the page to see current data.